Eidson, Tennessee
Current Conditions -  °F | °C
As of 2:55 AM on Friday 19 Dec 2014 (Local Time) from K0VG Reporting Station
Overcast Overcast  
Wind Chill: 36°   Ceiling: 4300
Heat Index: 36°   Visibility: 10mi
Dew Point: 23°   Wind: 0mph
Humidity: 60%   Direction: NA
Pressure: 30.19"   Gusts: NA
Location:  36.51°N, 83.03°W
Report Text: K0VG 190755Z AUTO 00000KT 10SM BKN043 OVC055 02/M05 A3019 RMK AO2
Loading
Personal Weather Stations






























Interactive Weather Map New forecast layout! Learn more

10-Day Weather Forecast

Advertisements
Track Severe Weather on mobile